Rechercher aéroport 
image banner adimage banner adimage banner ad
image banner ad

95CA - Bonel

Situé à Whitley Garden, United States

ICAO - 95CA, IATA -

Données fournies par Airmate  

Information générale

Coordonnées: N35°40'9" W120°32'55"
Élévation : 1030 feet MSL.
Variation magnétique : 15° East
Voir autres Aéroports à California

Données opérationnelles

Special qualification required
Heure actuelle UTC:
Heure actuelle locale:
Météo à : KPRB - Paso Robles Muni ( 7 km )
METAR: KPRB 292353Z AUTO 19014KT 10SM CLR 33/12 A2984 RMK AO2 SLP096 T03330117 10400 20283 56013
TAF: KPRB 292348Z 3000/3024 19015KT P6SM SKC FM300300 21008KT P6SM SKC FM300600 29007KT P6SM SKC FM300900 VRB03KT P6SM SKC FM302100 23010KT P6SM SKC FM302300 23015G20KT P6SM SKC
Voir NOTAMs / SUP AIP / TFR affectant cet aéroport [VIEW]
Fréquences de communication: [VIEW]

Pistes:

Identifiant RWYQFULongueur (ft)Largeur (ft)SurfaceLDA (ft)
17200050GRASS
35200050GRASS

Coordonnées de l'aéroport

Adresse: Whitley Garden United States

Vue satellite de 95CA